Time;durP1;ratioP1;P1;durP2;ratioP2;P2;SDS_P1;SDS_P2;PMS_P1;PMS_P2;Temp;Humidity;BMP_temperature;BMP_pressure;BME280_temperature;BME280_humidity;BME280_pressure;Samples;Min_cycle;Max_cycle;Signal;HPM_P1;HPM_P2
2023/06/12 00:01:40;;;;;;;4.40;4.20;;;23.20;47.20;;;;;;5034454;28;20218;-73
2023/06/12 00:04:06;;;;;;;4.77;4.57;;;23.20;47.20;;;;;;5034388;28;20343;-73
2023/06/12 00:06:33;;;;;;;4.23;4.03;;;23.20;47.20;;;;;;5031741;28;20479;-73
2023/06/12 00:08:59;;;;;;;5.20;5.00;;;23.20;47.20;;;;;;5019156;28;20837;-73
2023/06/12 00:11:25;;;;;;;4.27;4.07;;;23.20;47.20;;;;;;5018116;28;21078;-73
2023/06/12 00:13:51;;;;;;;4.20;3.90;;;23.20;47.20;;;;;;5036612;28;20949;-73
2023/06/12 00:16:16;;;;;;;5.00;4.80;;;23.20;47.20;;;;;;5035314;28;20472;-73
2023/06/12 00:18:43;;;;;;;4.13;3.93;;;23.20;47.30;;;;;;5038267;28;20351;-73
2023/06/12 00:21:10;;;;;;;5.00;4.70;;;23.20;47.30;;;;;;5023394;28;20259;-73
2023/06/12 00:23:37;;;;;;;4.90;4.70;;;23.10;47.20;;;;;;5036243;28;20909;-73
2023/06/12 00:26:05;;;;;;;4.83;4.63;;;23.20;47.50;;;;;;5033385;28;20531;-73
2023/06/12 00:28:32;;;;;;;4.30;4.10;;;23.20;47.30;;;;;;5037005;28;20505;-73
2023/06/12 00:30:58;;;;;;;5.10;4.80;;;23.20;47.30;;;;;;5034291;28;20481;-73
2023/06/12 00:33:24;;;;;;;4.47;4.27;;;23.10;47.20;;;;;;5031700;28;20459;-74
2023/06/12 00:35:51;;;;;;;4.50;4.30;;;23.10;47.30;;;;;;5035084;28;20493;-73
2023/06/12 00:38:16;;;;;;;4.40;4.20;;;23.20;47.30;;;;;;5035610;28;20487;-73
2023/06/12 00:40:42;;;;;;;4.30;4.10;;;23.20;47.30;;;;;;5035297;28;20798;-73
2023/06/12 00:43:11;;;;;;;4.57;4.37;;;23.20;47.40;;;;;;5035106;28;20214;-73
2023/06/12 00:45:36;;;;;;;4.43;4.23;;;23.10;47.20;;;;;;5036149;28;20301;-72
2023/06/12 00:48:03;;;;;;;4.23;4.03;;;23.10;47.20;;;;;;5036336;28;20565;-73
2023/06/12 00:50:30;;;;;;;4.93;4.63;;;23.20;47.50;;;;;;5033988;28;20214;-73
2023/06/12 00:53:00;;;;;;;3.87;3.67;;;23.10;47.20;;;;;;5033266;28;20442;-73
2023/06/12 00:55:28;;;;;;;4.40;4.20;;;23.10;48.10;;;;;;5036292;28;21037;-73
2023/06/12 00:57:53;;;;;;;4.30;4.10;;;23.10;47.30;;;;;;5033514;28;20481;-73
2023/06/12 01:00:19;;;;;;;4.17;3.97;;;23.20;47.50;;;;;;5028621;28;20459;-73
2023/06/12 01:02:47;;;;;;;4.57;4.37;;;23.20;47.50;;;;;;5033888;28;20261;-73
2023/06/12 01:05:15;;;;;;;4.27;4.07;;;23.10;47.40;;;;;;5033353;28;20471;-73
2023/06/12 01:07:56;;;;;;;4.23;3.97;;;23.10;47.30;;;;;;5035490;28;20472;-73
2023/06/12 01:10:37;;;;;;;4.23;4.03;;;23.10;48.10;;;;;;5033571;28;20467;-73
2023/06/12 01:13:03;;;;;;;4.03;3.83;;;23.10;47.40;;;;;;5031715;28;20520;-73
2023/06/12 01:15:29;;;;;;;4.77;4.47;;;23.10;47.30;;;;;;5033904;28;20463;-73
2023/06/12 01:17:58;;;;;;;4.50;4.30;;;23.10;47.40;;;;;;5036046;28;20984;-73
2023/06/12 01:20:24;;;;;;;3.97;3.77;;;23.10;47.30;;;;;;5032896;28;20222;-73
2023/06/12 01:23:18;;;;;;;4.00;3.80;;;23.10;47.30;;;;;;5036856;28;20471;-73
2023/06/12 01:26:25;;;;;;;4.70;4.50;;;23.10;47.30;;;;;;5030612;28;20549;-73
2023/06/12 01:29:19;;;;;;;4.37;4.17;;;23.10;47.30;;;;;;5036709;28;20586;-73
2023/06/12 01:31:56;;;;;;;3.87;3.67;;;23.10;47.40;;;;;;5034015;28;20467;-73
2023/06/12 01:34:27;;;;;;;4.10;3.90;;;23.10;47.40;;;;;;5034182;28;21351;-73
2023/06/12 01:37:05;;;;;;;4.37;4.17;;;23.10;47.40;;;;;;5033453;28;20462;-73
2023/06/12 01:39:38;;;;;;;4.67;4.37;;;23.10;47.40;;;;;;5028657;28;20551;-73
2023/06/12 01:42:07;;;;;;;4.30;4.10;;;23.10;47.40;;;;;;5036262;28;21405;-73
2023/06/12 01:44:33;;;;;;;4.27;4.07;;;23.10;47.40;;;;;;5034807;28;20526;-73
2023/06/12 01:46:58;;;;;;;4.70;4.50;;;23.10;47.30;;;;;;5034081;28;20470;-73
2023/06/12 01:49:24;;;;;;;4.57;4.37;;;23.10;47.50;;;;;;5035635;28;20459;-73
2023/06/12 01:51:50;;;;;;;4.10;3.90;;;23.10;47.30;;;;;;5033969;28;21208;-73
2023/06/12 01:54:15;;;;;;;4.30;4.00;;;23.10;47.30;;;;;;5034761;28;20222;-73
2023/06/12 01:56:42;;;;;;;4.57;4.37;;;23.10;47.30;;;;;;5034434;28;20588;-73
2023/06/12 01:59:08;;;;;;;4.43;4.23;;;23.10;47.30;;;;;;5032704;28;20234;-73
2023/06/12 02:01:33;;;;;;;4.10;3.90;;;23.10;47.40;;;;;;5031490;28;20516;-73
2023/06/12 02:04:00;;;;;;;4.30;4.10;;;23.10;47.30;;;;;;5030578;28;20225;-74
2023/06/12 02:06:25;;;;;;;4.03;3.83;;;23.10;47.40;;;;;;5037311;28;20248;-74
2023/06/12 02:08:52;;;;;;;3.87;3.67;;;23.10;47.40;;;;;;5034724;28;20530;-73
2023/06/12 02:11:18;;;;;;;4.80;4.60;;;23.10;47.30;;;;;;5038272;28;20229;-73
2023/06/12 02:13:43;;;;;;;4.10;3.90;;;23.10;47.40;;;;;;5039100;28;20499;-73
2023/06/12 02:16:09;;;;;;;4.23;4.03;;;23.10;47.30;;;;;;5037472;28;21042;-73
2023/06/12 02:18:35;;;;;;;3.87;3.67;;;23.10;47.30;;;;;;5039164;28;20220;-72
2023/06/12 02:21:00;;;;;;;4.27;4.07;;;23.10;47.30;;;;;;5035657;28;20773;-73
2023/06/12 02:23:26;;;;;;;4.30;4.10;;;23.10;47.30;;;;;;5037727;28;20214;-73
2023/06/12 02:25:51;;;;;;;4.00;3.80;;;23.10;47.30;;;;;;5038956;28;20808;-73
2023/06/12 02:28:17;;;;;;;4.27;4.07;;;23.10;47.30;;;;;;5037680;28;20221;-73
2023/06/12 02:30:42;;;;;;;3.93;3.73;;;23.10;47.30;;;;;;5030785;28;20616;-73
2023/06/12 02:33:09;;;;;;;4.50;4.30;;;23.10;47.30;;;;;;5037117;28;20222;-73
2023/06/12 02:35:38;;;;;;;4.53;4.23;;;23.10;47.30;;;;;;5040304;28;20301;-73
2023/06/12 02:38:04;;;;;;;3.90;3.70;;;23.10;47.40;;;;;;5038865;28;20922;-73
2023/06/12 02:40:30;;;;;;;4.20;4.00;;;23.10;47.30;;;;;;5035834;28;20460;-73
2023/06/12 02:42:55;;;;;;;4.47;4.27;;;23.10;47.30;;;;;;5036189;28;20238;-73
2023/06/12 02:45:22;;;;;;;4.00;3.80;;;23.10;47.30;;;;;;5035470;28;20225;-73
2023/06/12 02:47:48;;;;;;;4.30;4.10;;;23.10;47.30;;;;;;5038954;28;20222;-73
2023/06/12 02:50:13;;;;;;;4.10;3.90;;;23.10;47.30;;;;;;5037533;28;21028;-73
2023/06/12 02:52:40;;;;;;;4.20;4.00;;;23.10;47.40;;;;;;5042522;28;20237;-73
2023/06/12 02:55:06;;;;;;;4.63;4.33;;;23.10;47.30;;;;;;5034530;28;20698;-73
2023/06/12 02:57:32;;;;;;;4.33;4.13;;;23.10;47.20;;;;;;5039561;28;20472;-73
2023/06/12 02:59:58;;;;;;;4.57;4.37;;;23.10;47.30;;;;;;5037488;28;20500;-73
2023/06/12 03:02:23;;;;;;;4.67;4.47;;;23.10;47.20;;;;;;5036524;28;20218;-73
2023/06/12 03:04:49;;;;;;;4.00;3.80;;;23.10;47.20;;;;;;5033485;28;20280;-73
2023/06/12 03:07:16;;;;;;;3.97;3.77;;;23.10;47.20;;;;;;5035316;28;20222;-73
2023/06/12 03:09:43;;;;;;;3.90;3.70;;;23.00;47.20;;;;;;5033013;28;20225;-73
2023/06/12 03:12:08;;;;;;;4.63;4.43;;;23.10;47.20;;;;;;5035841;28;21031;-73
2023/06/12 03:14:34;;;;;;;3.60;3.40;;;23.10;47.30;;;;;;5036316;28;20463;-73
2023/06/12 03:17:00;;;;;;;4.20;4.00;;;23.00;47.20;;;;;;5038776;28;20234;-73
2023/06/12 03:19:25;;;;;;;4.30;4.10;;;23.10;47.30;;;;;;5037877;28;20218;-73
2023/06/12 03:21:51;;;;;;;4.20;4.00;;;23.10;47.30;;;;;;5035137;28;20225;-73
2023/06/12 03:24:16;;;;;;;4.20;4.00;;;23.00;47.20;;;;;;5034402;28;20660;-73
2023/06/12 03:26:42;;;;;;;4.30;4.10;;;23.00;47.30;;;;;;5036052;28;20241;-73
2023/06/12 03:29:08;;;;;;;3.90;3.70;;;23.00;47.20;;;;;;5032031;28;20368;-73
2023/06/12 03:31:34;;;;;;;4.00;3.80;;;23.10;47.20;;;;;;5039187;28;20214;-73
2023/06/12 03:33:59;;;;;;;3.90;3.70;;;23.00;47.20;;;;;;5036315;28;20226;-73
2023/06/12 03:36:25;;;;;;;3.93;3.73;;;23.10;47.20;;;;;;5038206;28;20237;-73
2023/06/12 03:38:51;;;;;;;4.30;4.10;;;23.00;47.20;;;;;;5034616;28;20677;-73
2023/06/12 03:41:20;;;;;;;3.77;3.57;;;23.00;47.30;;;;;;5051064;28;20221;-73
2023/06/12 03:43:45;;;;;;;4.80;4.57;;;23.00;47.10;;;;;;5040048;28;20467;-73
2023/06/12 03:46:11;;;;;;;4.47;4.27;;;23.00;47.10;;;;;;5031720;28;20503;-73
2023/06/12 03:48:36;;;;;;;4.33;4.13;;;23.00;47.10;;;;;;5037516;28;20623;-73
2023/06/12 03:51:02;;;;;;;3.87;3.67;;;23.00;47.00;;;;;;5034291;28;20221;-73
2023/06/12 03:53:27;;;;;;;4.10;3.83;;;23.00;47.10;;;;;;5034926;28;20226;-73
2023/06/12 03:55:53;;;;;;;4.30;4.10;;;23.00;47.20;;;;;;5039189;28;20306;-73
2023/06/12 03:58:18;;;;;;;4.20;4.00;;;23.00;47.20;;;;;;5035131;28;20257;-73
2023/06/12 04:00:47;;;;;;;4.70;4.50;;;23.00;47.10;;;;;;5034022;28;20225;-73
2023/06/12 04:03:21;;;;;;;4.30;4.10;;;23.00;47.20;;;;;;5025624;28;20394;-73
2023/06/12 04:05:49;;;;;;;4.00;3.80;;;23.00;47.10;;;;;;5032316;28;20519;-77
2023/06/12 04:08:15;;;;;;;4.10;3.90;;;23.00;47.10;;;;;;5036759;28;20446;-76
2023/06/12 04:10:42;;;;;;;4.80;4.60;;;23.00;47.20;;;;;;5036419;28;20451;-77
2023/06/12 04:13:07;;;;;;;3.90;3.70;;;23.00;47.00;;;;;;5039228;28;20229;-76
2023/06/12 04:15:33;;;;;;;4.33;4.13;;;23.00;47.00;;;;;;5034339;28;20447;-76
2023/06/12 04:17:58;;;;;;;4.10;3.90;;;23.10;47.00;;;;;;5035642;28;20226;-76
2023/06/12 04:20:26;;;;;;;4.60;4.30;;;23.10;46.80;;;;;;5027662;28;21399;-76
2023/06/12 04:22:52;;;;;;;4.37;4.17;;;23.10;46.80;;;;;;5035066;28;20711;-72
2023/06/12 04:25:18;;;;;;;4.40;4.20;;;23.10;46.70;;;;;;5036459;28;20459;-76
2023/06/12 04:27:44;;;;;;;4.20;4.00;;;23.10;46.70;;;;;;5042900;28;20225;-75
2023/06/12 04:30:10;;;;;;;4.57;4.37;;;23.10;46.60;;;;;;5030270;28;20833;-75
2023/06/12 04:32:37;;;;;;;3.80;3.50;;;23.10;46.60;;;;;;5038192;28;20467;-75
2023/06/12 04:35:03;;;;;;;4.10;3.90;;;23.10;46.50;;;;;;5032524;28;20218;-77
2023/06/12 04:37:28;;;;;;;4.37;4.17;;;23.10;46.50;;;;;;5031207;28;20444;-76
2023/06/12 04:39:55;;;;;;;4.30;4.10;;;23.10;46.50;;;;;;5034804;28;20995;-84
2023/06/12 04:42:24;;;;;;;4.07;3.77;;;23.20;46.60;;;;;;5035117;28;20328;-76
2023/06/12 04:44:50;;;;;;;4.20;4.00;;;23.10;46.50;;;;;;5038939;28;20473;-76
2023/06/12 04:47:16;;;;;;;4.37;4.17;;;23.10;46.50;;;;;;5038717;28;20459;-76
2023/06/12 04:49:45;;;;;;;4.77;4.47;;;23.10;46.40;;;;;;5036074;28;20268;-76
2023/06/12 04:52:12;;;;;;;4.30;4.10;;;23.20;46.50;;;;;;5029244;28;20453;-80
2023/06/12 04:54:44;;;;;;;4.50;4.20;;;23.10;46.40;;;;;;5039150;28;20470;-69
2023/06/12 04:57:12;;;;;;;4.27;4.07;;;23.10;46.30;;;;;;5030032;28;20479;-68
2023/06/12 04:59:39;;;;;;;4.00;3.80;;;23.10;46.30;;;;;;5035935;28;20459;-69
2023/06/12 05:02:06;;;;;;;4.07;3.87;;;23.10;46.30;;;;;;5037335;28;20860;-69
2023/06/12 05:04:32;;;;;;;3.87;3.67;;;23.10;46.30;;;;;;5032065;28;20994;-69
2023/06/12 05:06:59;;;;;;;4.40;4.10;;;23.20;46.40;;;;;;5031781;28;20485;-68
2023/06/12 05:09:25;;;;;;;4.03;3.83;;;23.10;46.20;;;;;;5040719;28;20953;-66
2023/06/12 05:11:51;;;;;;;4.10;3.90;;;23.20;46.30;;;;;;5038299;28;20550;-67
2023/06/12 05:14:16;;;;;;;3.97;3.77;;;23.10;46.30;;;;;;5037082;28;20550;-69
2023/06/12 05:16:46;;;;;;;4.67;4.27;;;23.20;46.40;;;;;;5030241;28;20233;-67
2023/06/12 05:19:13;;;;;;;4.17;3.97;;;23.20;46.30;;;;;;5030618;28;20313;-68
2023/06/12 05:21:41;;;;;;;4.70;4.50;;;23.20;46.40;;;;;;5021467;28;20458;-68
2023/06/12 05:24:07;;;;;;;4.20;4.00;;;23.10;46.20;;;;;;5029075;28;20472;-69
2023/06/12 05:26:33;;;;;;;4.70;4.33;;;23.20;46.30;;;;;;5038337;28;20559;-68
2023/06/12 05:28:58;;;;;;;4.27;3.97;;;23.10;46.20;;;;;;5032731;28;20478;-68
2023/06/12 05:31:24;;;;;;;4.47;4.00;;;23.20;46.30;;;;;;5034959;28;20224;-68
2023/06/12 05:33:49;;;;;;;4.20;4.00;;;23.10;46.20;;;;;;5035921;28;20218;-68
2023/06/12 05:36:15;;;;;;;4.30;4.10;;;23.10;46.20;;;;;;5030613;28;20230;-68
2023/06/12 05:38:46;;;;;;;4.20;4.00;;;23.20;46.30;;;;;;5031930;28;20233;-69
2023/06/12 05:41:12;;;;;;;4.77;4.53;;;23.20;46.30;;;;;;5034718;28;20260;-69
2023/06/12 05:43:39;;;;;;;3.63;3.43;;;23.20;46.40;;;;;;5029908;28;20561;-69
2023/06/12 05:46:04;;;;;;;4.63;4.23;;;23.10;46.20;;;;;;5034111;28;20470;-68
2023/06/12 05:48:30;;;;;;;4.40;4.03;;;23.20;46.30;;;;;;5027748;28;20431;-68
2023/06/12 05:50:56;;;;;;;3.90;3.70;;;23.10;46.20;;;;;;5033655;28;21521;-68
2023/06/12 05:53:21;;;;;;;4.33;4.13;;;23.10;46.20;;;;;;5034832;28;20308;-68
2023/06/12 05:55:47;;;;;;;4.00;3.80;;;23.10;46.20;;;;;;5023814;28;20280;-68
2023/06/12 05:58:12;;;;;;;4.30;4.00;;;23.10;46.20;;;;;;5025401;28;20253;-69
2023/06/12 06:00:38;;;;;;;4.20;4.00;;;23.10;46.20;;;;;;5034197;28;20880;-69
2023/06/12 06:03:04;;;;;;;4.00;3.80;;;23.10;46.20;;;;;;5038265;28;20263;-69
2023/06/12 06:05:30;;;;;;;4.33;4.13;;;23.10;46.20;;;;;;5035256;28;20280;-69
2023/06/12 06:07:55;;;;;;;4.33;4.13;;;23.10;46.20;;;;;;5028789;28;20443;-69
2023/06/12 06:10:21;;;;;;;4.50;4.30;;;23.10;46.20;;;;;;5026841;28;20305;-69
2023/06/12 06:12:46;;;;;;;4.40;4.20;;;23.10;46.20;;;;;;5029981;28;20206;-69
2023/06/12 06:15:12;;;;;;;4.30;4.00;;;23.10;46.20;;;;;;5030548;28;20222;-69
2023/06/12 06:17:38;;;;;;;4.27;4.07;;;23.10;46.20;;;;;;5033976;28;20280;-69
2023/06/12 06:20:05;;;;;;;4.17;3.90;;;23.20;46.20;;;;;;5036222;28;20221;-69
2023/06/12 06:22:31;;;;;;;4.40;4.20;;;23.20;46.20;;;;;;5031715;28;20685;-69
2023/06/12 06:24:57;;;;;;;4.37;4.07;;;23.20;46.20;;;;;;5033477;28;20457;-69
2023/06/12 06:27:22;;;;;;;3.60;3.40;;;23.20;46.20;;;;;;5036187;28;23012;-69
2023/06/12 06:29:48;;;;;;;4.33;4.13;;;23.20;46.20;;;;;;5025772;28;20261;-68
2023/06/12 06:32:13;;;;;;;4.17;3.90;;;23.10;46.10;;;;;;5029698;28;20287;-68
2023/06/12 06:34:39;;;;;;;4.10;3.90;;;23.20;46.20;;;;;;5018781;28;20250;-69
2023/06/12 06:37:04;;;;;;;4.00;3.70;;;23.20;46.20;;;;;;5031956;28;20249;-69
2023/06/12 06:39:30;;;;;;;3.90;3.70;;;23.10;46.10;;;;;;5028292;28;20241;-68
2023/06/12 06:41:55;;;;;;;4.13;3.93;;;23.20;46.20;;;;;;5029662;28;20308;-69
2023/06/12 06:44:21;;;;;;;4.00;3.80;;;23.20;46.20;;;;;;5032153;28;20253;-69
2023/06/12 06:46:47;;;;;;;3.90;3.70;;;23.20;46.30;;;;;;5031163;28;20311;-69
2023/06/12 06:49:12;;;;;;;3.90;3.70;;;23.20;46.20;;;;;;5031886;28;20218;-69
2023/06/12 06:51:38;;;;;;;4.57;4.27;;;23.20;46.20;;;;;;5034420;28;20218;-69
2023/06/12 06:54:04;;;;;;;4.00;3.80;;;23.20;46.30;;;;;;5037097;28;20241;-69
2023/06/12 06:56:30;;;;;;;3.90;3.70;;;23.20;46.20;;;;;;5026627;28;20242;-69
2023/06/12 06:58:55;;;;;;;4.00;3.80;;;23.20;46.20;;;;;;5029824;28;20238;-68
2023/06/12 07:01:21;;;;;;;3.70;3.50;;;23.20;46.20;;;;;;5037278;28;20490;-68
2023/06/12 07:03:46;;;;;;;3.90;3.70;;;23.20;46.20;;;;;;5036920;28;20614;-69
2023/06/12 07:06:12;;;;;;;4.00;3.80;;;23.20;46.20;;;;;;5032679;28;20704;-68
2023/06/12 07:08:37;;;;;;;4.10;3.90;;;23.20;46.20;;;;;;5030648;28;20225;-69
2023/06/12 07:11:03;;;;;;;4.40;4.20;;;23.20;46.30;;;;;;5041217;28;20240;-68
2023/06/12 07:13:28;;;;;;;4.10;3.90;;;23.20;46.20;;;;;;5037810;28;20222;-68
2023/06/12 07:15:54;;;;;;;4.20;4.00;;;23.20;46.20;;;;;;5030896;28;22203;-68
2023/06/12 07:18:20;;;;;;;3.90;3.70;;;23.20;46.20;;;;;;5037764;28;20237;-68
2023/06/12 07:20:45;;;;;;;4.13;3.93;;;23.20;46.20;;;;;;5036278;28;20700;-68
2023/06/12 07:23:11;;;;;;;4.40;4.20;;;23.20;46.20;;;;;;5039151;28;20677;-69
2023/06/12 07:25:37;;;;;;;4.30;4.10;;;23.20;46.20;;;;;;5033404;28;20223;-68
2023/06/12 07:28:02;;;;;;;4.60;4.40;;;23.20;46.20;;;;;;5039283;28;20225;-68
2023/06/12 07:30:28;;;;;;;4.20;4.00;;;23.20;46.20;;;;;;5029610;28;20544;-68
2023/06/12 07:32:54;;;;;;;4.03;3.83;;;23.20;46.20;;;;;;5033029;28;20221;-68
2023/06/12 07:35:20;;;;;;;4.20;4.00;;;23.20;46.20;;;;;;5031883;28;20337;-68
2023/06/12 07:37:45;;;;;;;4.20;4.00;;;23.20;46.20;;;;;;5035187;28;20752;-68
2023/06/12 07:40:11;;;;;;;3.90;3.70;;;23.20;46.20;;;;;;5034594;28;20540;-68
2023/06/12 07:42:37;;;;;;;4.10;3.90;;;23.20;46.20;;;;;;5036736;28;20242;-68
2023/06/12 07:45:03;;;;;;;3.67;3.47;;;23.20;46.20;;;;;;5038522;28;20558;-68
2023/06/12 07:47:28;;;;;;;4.20;4.00;;;23.20;46.20;;;;;;5037828;28;20315;-71
2023/06/12 07:49:54;;;;;;;4.33;4.13;;;23.20;46.20;;;;;;5028755;28;20583;-72
2023/06/12 07:52:20;;;;;;;4.00;3.80;;;23.20;46.20;;;;;;5026654;28;20281;-73
2023/06/12 07:54:47;;;;;;;4.27;4.07;;;23.20;46.20;;;;;;5034902;28;20708;-73
2023/06/12 07:57:13;;;;;;;4.03;3.83;;;23.20;46.20;;;;;;5026529;28;20494;-73
2023/06/12 07:59:39;;;;;;;4.70;4.50;;;23.20;46.20;;;;;;5033805;28;20459;-72
2023/06/12 08:02:06;;;;;;;4.23;4.03;;;23.20;46.10;;;;;;5031790;28;20452;-72
2023/06/12 08:04:33;;;;;;;4.10;3.90;;;23.20;46.10;;;;;;5034972;28;20232;-73
2023/06/12 08:07:00;;;;;;;4.17;3.97;;;23.20;46.10;;;;;;5030080;28;20549;-73
2023/06/12 08:09:26;;;;;;;3.93;3.73;;;23.20;46.10;;;;;;5037146;28;20451;-73
2023/06/12 08:11:52;;;;;;;4.20;4.00;;;23.20;46.10;;;;;;5037550;28;20459;-72
2023/06/12 08:14:17;;;;;;;4.03;3.83;;;23.20;46.10;;;;;;5039442;28;20222;-72
2023/06/12 08:16:44;;;;;;;4.10;3.90;;;23.20;46.10;;;;;;5031764;28;20262;-72
2023/06/12 08:19:10;;;;;;;4.20;4.00;;;23.20;46.10;;;;;;5030690;28;20264;-72
2023/06/12 08:21:36;;;;;;;4.50;4.30;;;23.30;46.30;;;;;;5037150;28;20511;-72
2023/06/12 08:24:02;;;;;;;4.50;4.30;;;23.30;46.20;;;;;;5038493;28;20215;-72
2023/06/12 08:26:28;;;;;;;4.63;4.43;;;23.30;46.30;;;;;;5030019;28;20233;-73
2023/06/12 08:28:53;;;;;;;3.70;3.50;;;23.30;46.30;;;;;;5029840;28;20463;-73
2023/06/12 08:31:19;;;;;;;3.90;3.70;;;23.30;46.30;;;;;;5027133;28;20774;-73
2023/06/12 08:33:44;;;;;;;4.20;4.00;;;23.20;46.20;;;;;;5030294;28;20225;-73
2023/06/12 08:36:12;;;;;;;4.13;3.93;;;23.30;46.20;;;;;;5031200;28;20222;-72
2023/06/12 08:38:37;;;;;;;4.27;4.07;;;23.30;46.20;;;;;;5031372;28;20669;-72
2023/06/12 08:41:04;;;;;;;4.07;3.87;;;23.30;46.20;;;;;;5030501;28;20492;-73
2023/06/12 08:43:30;;;;;;;4.03;3.83;;;23.30;46.20;;;;;;5032913;28;20315;-73
2023/06/12 08:45:57;;;;;;;4.70;4.50;;;23.30;46.20;;;;;;5025641;28;20558;-72
2023/06/12 08:48:25;;;;;;;4.60;4.30;;;23.30;46.20;;;;;;5026895;28;20226;-72
2023/06/12 08:50:52;;;;;;;4.40;4.20;;;23.30;46.20;;;;;;5028210;28;20475;-73
2023/06/12 08:53:18;;;;;;;4.20;4.00;;;23.30;46.20;;;;;;5035681;28;20510;-73
2023/06/12 08:55:44;;;;;;;3.87;3.67;;;23.30;46.80;;;;;;5025383;28;20985;-73
2023/06/12 08:58:11;;;;;;;4.53;4.33;;;23.30;46.20;;;;;;5032008;28;20303;-72
2023/06/12 09:00:37;;;;;;;4.20;4.00;;;23.30;46.10;;;;;;5032482;28;20486;-72
2023/06/12 09:03:04;;;;;;;3.83;3.63;;;23.30;46.10;;;;;;5038111;28;20996;-73
2023/06/12 09:05:37;;;;;;;3.80;3.60;;;23.30;46.20;;;;;;5032364;28;20456;-73
2023/06/12 09:08:04;;;;;;;3.80;3.60;;;23.30;46.20;;;;;;5033338;28;20471;-73
2023/06/12 09:10:34;;;;;;;4.50;4.30;;;23.30;46.10;;;;;;5035245;28;21032;-73
2023/06/12 09:13:04;;;;;;;4.40;4.20;;;23.30;46.10;;;;;;5034536;28;21079;-73
2023/06/12 09:15:30;;;;;;;4.33;4.13;;;23.30;46.10;;;;;;5034067;28;20447;-73
2023/06/12 09:17:56;;;;;;;4.40;4.10;;;23.30;46.10;;;;;;5032722;28;20472;-73
2023/06/12 09:20:29;;;;;;;4.07;3.87;;;23.30;46.20;;;;;;5028499;28;20333;-73
2023/06/12 09:23:00;;;;;;;4.27;4.07;;;23.30;46.10;;;;;;5024468;28;20217;-72
2023/06/12 09:25:37;;;;;;;4.00;3.80;;;23.30;46.10;;;;;;5032952;28;20462;-75
2023/06/12 09:28:03;;;;;;;4.37;4.17;;;23.30;46.10;;;;;;5033010;28;20898;-76
2023/06/12 09:30:37;;;;;;;4.07;3.87;;;23.30;46.10;;;;;;5035974;28;20535;-73
2023/06/12 09:33:03;;;;;;;4.10;3.90;;;23.30;46.10;;;;;;5035139;28;20455;-73
2023/06/12 09:35:28;;;;;;;4.03;3.83;;;23.30;46.10;;;;;;5036108;28;20447;-73
2023/06/12 09:37:56;;;;;;;4.13;3.93;;;23.30;46.10;;;;;;5029514;28;20225;-73
2023/06/12 09:40:21;;;;;;;4.17;3.97;;;23.30;46.10;;;;;;5031253;28;20225;-73
2023/06/12 09:42:49;;;;;;;4.10;3.90;;;23.30;46.10;;;;;;5030545;28;22934;-73
2023/06/12 09:45:17;;;;;;;4.00;3.80;;;23.30;46.00;;;;;;5028055;28;20261;-73
2023/06/12 09:47:48;;;;;;;3.90;3.70;;;23.30;46.00;;;;;;5025338;28;20559;-73
2023/06/12 09:50:15;;;;;;;4.60;4.20;;;23.30;46.00;;;;;;5034004;28;20482;-68
2023/06/12 09:52:42;;;;;;;4.10;3.90;;;23.30;46.00;;;;;;5034176;28;20455;-67
2023/06/12 09:55:15;;;;;;;4.00;3.80;;;23.30;46.10;;;;;;5036258;28;20460;-67
2023/06/12 09:57:50;;;;;;;3.63;3.43;;;23.30;46.10;;;;;;5031428;28;20988;-68
2023/06/12 10:00:16;;;;;;;4.23;3.93;;;23.40;46.10;;;;;;5033091;28;20462;-68
2023/06/12 10:03:00;;;;;;;4.17;3.97;;;23.30;46.00;;;;;;5037668;28;20537;-67
2023/06/12 10:05:37;;;;;;;4.10;3.90;;;23.40;46.10;;;;;;5031604;28;20566;-68
2023/06/12 10:08:03;;;;;;;3.70;3.50;;;23.30;46.10;;;;;;5031677;28;20997;-67
2023/06/12 10:10:30;;;;;;;3.87;3.67;;;23.30;46.10;;;;;;5030651;28;20455;-68
2023/06/12 10:12:56;;;;;;;3.90;3.70;;;23.40;46.10;;;;;;5028646;28;20445;-68
2023/06/12 10:15:22;;;;;;;3.87;3.67;;;23.40;46.00;;;;;;5033823;28;20478;-67
2023/06/12 10:17:51;;;;;;;3.80;3.60;;;23.30;46.00;;;;;;5032485;28;20564;-67
2023/06/12 10:20:19;;;;;;;4.83;4.37;;;23.30;46.00;;;;;;5037127;28;20468;-67
2023/06/12 10:22:46;;;;;;;3.80;3.60;;;23.40;46.10;;;;;;5035448;28;20526;-68
2023/06/12 10:25:13;;;;;;;4.73;4.53;;;23.30;46.10;;;;;;5036889;28;20505;-67
2023/06/12 10:27:40;;;;;;;3.90;3.70;;;23.40;46.10;;;;;;5041402;28;20984;-68
2023/06/12 10:30:10;;;;;;;4.00;3.80;;;23.40;46.10;;;;;;5033160;28;20458;-67
2023/06/12 10:32:37;;;;;;;4.00;3.80;;;23.40;46.10;;;;;;5037425;28;20443;-67
2023/06/12 10:35:03;;;;;;;4.57;4.27;;;23.40;46.00;;;;;;5031857;28;20465;-68
2023/06/12 10:37:34;;;;;;;4.33;4.13;;;23.40;46.00;;;;;;5041979;28;20471;-67
2023/06/12 10:40:10;;;;;;;4.50;4.30;;;23.40;46.00;;;;;;5032140;28;20573;-67
2023/06/12 10:42:41;;;;;;;3.90;3.70;;;23.40;46.00;;;;;;5036794;28;20538;-68
2023/06/12 10:45:29;;;;;;;4.10;3.90;;;23.40;46.00;;;;;;5040573;28;20496;-67
2023/06/12 10:48:05;;;;;;;3.80;3.60;;;23.40;45.90;;;;;;5042712;28;20507;-68
2023/06/12 10:50:35;;;;;;;4.30;4.10;;;23.40;45.90;;;;;;5036037;28;20570;-67
2023/06/12 10:53:06;;;;;;;3.93;3.73;;;23.40;46.00;;;;;;5039576;28;21341;-68
2023/06/12 10:55:34;;;;;;;4.17;3.97;;;23.40;46.00;;;;;;5028532;28;20482;-68
2023/06/12 10:58:01;;;;;;;4.50;4.30;;;23.40;45.90;;;;;;5034508;28;20542;-67
2023/06/12 11:00:36;;;;;;;4.53;4.33;;;23.40;45.90;;;;;;5022784;28;20541;-67
2023/06/12 11:03:07;;;;;;;3.60;3.40;;;23.40;45.90;;;;;;5034746;28;20470;-69
2023/06/12 11:05:33;;;;;;;4.07;3.87;;;23.40;45.90;;;;;;5038826;28;20988;-68
2023/06/12 11:08:04;;;;;;;3.80;3.60;;;23.40;45.90;;;;;;5041045;28;20489;-68
2023/06/12 11:10:31;;;;;;;4.13;3.93;;;23.40;45.80;;;;;;5034524;28;20465;-67
2023/06/12 11:12:57;;;;;;;4.00;3.80;;;23.40;45.80;;;;;;5035110;28;20467;-67
2023/06/12 11:15:23;;;;;;;4.90;4.33;;;23.40;45.80;;;;;;5035160;28;21095;-67
2023/06/12 11:17:50;;;;;;;3.93;3.73;;;23.40;45.80;;;;;;5035357;28;20997;-68
2023/06/12 11:20:18;;;;;;;4.27;4.07;;;23.40;45.80;;;;;;5039301;28;20528;-67
2023/06/12 11:22:47;;;;;;;4.37;4.07;;;23.40;45.80;;;;;;5035527;28;20463;-68
2023/06/12 11:25:14;;;;;;;5.30;5.00;;;23.50;45.80;;;;;;5030346;28;20490;-67
2023/06/12 11:27:39;;;;;;;4.27;4.07;;;23.50;45.90;;;;;;5024432;28;20499;-66
2023/06/12 11:30:09;;;;;;;3.73;3.53;;;23.40;45.70;;;;;;5025756;28;20455;-66
2023/06/12 11:32:35;;;;;;;3.40;3.20;;;23.50;45.70;;;;;;5028402;28;20690;-66
2023/06/12 11:35:03;;;;;;;3.93;3.63;;;23.40;45.70;;;;;;5023527;28;20447;-66
2023/06/12 11:37:28;;;;;;;3.90;3.70;;;23.40;45.60;;;;;;5032087;28;20494;-66
2023/06/12 11:40:08;;;;;;;4.23;3.93;;;23.50;45.80;;;;;;5034975;28;20489;-65
2023/06/12 11:42:34;;;;;;;4.23;4.03;;;23.50;45.70;;;;;;5035287;28;20349;-67
2023/06/12 11:45:01;;;;;;;4.73;4.10;;;23.50;45.70;;;;;;5038943;28;20447;-65
2023/06/12 11:47:26;;;;;;;4.20;4.00;;;23.50;45.70;;;;;;5027056;28;21443;-66
2023/06/12 11:49:52;;;;;;;4.73;4.43;;;23.40;45.60;;;;;;5035764;28;20436;-66
2023/06/12 11:52:20;;;;;;;4.50;4.30;;;23.50;45.70;;;;;;5032574;28;20300;-66
2023/06/12 11:55:21;;;;;;;3.67;3.47;;;23.50;45.70;;;;;;5036393;28;20214;-66
2023/06/12 11:57:48;;;;;;;3.87;3.67;;;23.40;45.60;;;;;;4992773;28;20497;-66
2023/06/12 12:00:17;;;;;;;3.17;2.97;;;23.50;45.70;;;;;;5036329;28;20478;-66
2023/06/12 12:02:49;;;;;;;4.40;4.20;;;23.50;45.70;;;;;;5033075;28;20479;-67
2023/06/12 12:05:18;;;;;;;4.47;4.27;;;23.40;45.60;;;;;;5037001;28;20467;-67
2023/06/12 12:07:45;;;;;;;3.70;3.50;;;23.50;45.70;;;;;;5032623;28;20574;-67
2023/06/12 12:10:13;;;;;;;3.87;3.67;;;23.50;45.70;;;;;;5032321;28;21202;-67
2023/06/12 12:12:40;;;;;;;3.97;3.77;;;23.50;45.60;;;;;;5032542;28;21001;-67
2023/06/12 12:15:07;;;;;;;4.20;4.00;;;23.50;45.60;;;;;;5032184;28;20624;-68
2023/06/12 12:17:32;;;;;;;4.17;3.97;;;23.50;45.60;;;;;;5035449;28;20505;-68
2023/06/12 12:20:07;;;;;;;4.10;3.90;;;23.50;45.60;;;;;;5035819;28;20498;-68
2023/06/12 12:22:40;;;;;;;3.70;3.50;;;23.50;46.20;;;;;;5035122;28;20700;-67
2023/06/12 12:25:07;;;;;;;4.20;4.00;;;23.50;45.60;;;;;;5035305;28;20566;-68
2023/06/12 12:27:33;;;;;;;4.40;4.20;;;23.50;45.70;;;;;;5033078;28;20456;-68
2023/06/12 12:29:59;;;;;;;3.80;3.60;;;23.50;45.70;;;;;;5031760;28;20456;-68
2023/06/12 12:32:25;;;;;;;3.90;3.70;;;23.50;45.60;;;;;;5027481;28;20495;-67
2023/06/12 12:34:51;;;;;;;3.70;3.50;;;23.50;45.70;;;;;;5032724;28;20351;-67
2023/06/12 12:37:16;;;;;;;3.90;3.70;;;23.50;45.70;;;;;;5035893;28;20256;-68
2023/06/12 12:39:42;;;;;;;4.20;4.00;;;23.50;45.60;;;;;;5037668;28;20210;-68
2023/06/12 12:42:07;;;;;;;4.47;4.27;;;23.50;45.60;;;;;;5036662;28;21290;-68
2023/06/12 12:44:33;;;;;;;3.90;3.70;;;23.50;45.70;;;;;;5036574;28;20237;-69
2023/06/12 12:46:58;;;;;;;4.50;4.30;;;23.50;45.70;;;;;;5034182;28;20558;-68
2023/06/12 12:49:24;;;;;;;3.80;3.60;;;23.50;45.70;;;;;;5035284;28;20249;-68